sensor_id;sensor_type;location;lat;lon;timestamp;P1;durP1;ratioP1;P2;durP2;ratioP2
70080;SDS011;57452;50.496;30.504;2022-07-06T00:00:24;4.63;;;4.05;;
70080;SDS011;57452;50.496;30.504;2022-07-06T00:02:52;4.95;;;4.22;;
70080;SDS011;57452;50.496;30.504;2022-07-06T00:05:19;4.78;;;3.90;;
70080;SDS011;57452;50.496;30.504;2022-07-06T00:07:47;6.05;;;4.03;;
70080;SDS011;57452;50.496;30.504;2022-07-06T00:10:14;4.97;;;3.95;;
70080;SDS011;57452;50.496;30.504;2022-07-06T00:12:42;6.65;;;3.83;;
70080;SDS011;57452;50.496;30.504;2022-07-06T00:15:09;5.97;;;3.72;;
70080;SDS011;57452;50.496;30.504;2022-07-06T00:17:37;6.18;;;4.68;;
70080;SDS011;57452;50.496;30.504;2022-07-06T00:20:04;5.10;;;3.75;;
70080;SDS011;57452;50.496;30.504;2022-07-06T00:22:32;4.97;;;3.88;;
70080;SDS011;57452;50.496;30.504;2022-07-06T00:24:59;6.35;;;4.65;;
70080;SDS011;57452;50.496;30.504;2022-07-06T00:27:27;6.55;;;4.70;;
70080;SDS011;57452;50.496;30.504;2022-07-06T00:29:54;6.10;;;4.47;;
70080;SDS011;57452;50.496;30.504;2022-07-06T00:32:21;6.28;;;4.57;;
70080;SDS011;57452;50.496;30.504;2022-07-06T00:34:49;9.43;;;5.30;;
70080;SDS011;57452;50.496;30.504;2022-07-06T00:37:16;7.07;;;5.32;;
70080;SDS011;57452;50.496;30.504;2022-07-06T00:39:43;5.72;;;4.63;;
70080;SDS011;57452;50.496;30.504;2022-07-06T00:42:11;6.05;;;4.70;;
70080;SDS011;57452;50.496;30.504;2022-07-06T00:44:38;6.20;;;4.68;;
70080;SDS011;57452;50.496;30.504;2022-07-06T00:47:06;6.07;;;4.90;;
70080;SDS011;57452;50.496;30.504;2022-07-06T00:49:34;5.55;;;4.90;;
70080;SDS011;57452;50.496;30.504;2022-07-06T00:52:20;5.95;;;5.35;;
70080;SDS011;57452;50.496;30.504;2022-07-06T00:54:47;6.90;;;5.53;;
70080;SDS011;57452;50.496;30.504;2022-07-06T00:57:16;8.70;;;5.68;;
70080;SDS011;57452;50.496;30.504;2022-07-06T00:59:44;7.20;;;5.45;;
70080;SDS011;57452;50.496;30.504;2022-07-06T01:02:11;7.85;;;5.38;;
70080;SDS011;57452;50.496;30.504;2022-07-06T01:04:39;7.15;;;5.00;;
70080;SDS011;57452;50.496;30.504;2022-07-06T01:07:06;6.05;;;5.25;;
70080;SDS011;57452;50.496;30.504;2022-07-06T01:09:34;7.25;;;4.93;;
70080;SDS011;57452;50.496;30.504;2022-07-06T01:12:01;6.20;;;4.68;;
70080;SDS011;57452;50.496;30.504;2022-07-06T01:14:29;8.25;;;5.45;;
70080;SDS011;57452;50.496;30.504;2022-07-06T01:16:56;6.97;;;5.07;;
70080;SDS011;57452;50.496;30.504;2022-07-06T01:19:24;5.70;;;4.60;;
70080;SDS011;57452;50.496;30.504;2022-07-06T01:21:51;6.85;;;4.90;;
70080;SDS011;57452;50.496;30.504;2022-07-06T01:24:19;5.05;;;4.55;;
70080;SDS011;57452;50.496;30.504;2022-07-06T01:26:46;6.68;;;4.47;;
70080;SDS011;57452;50.496;30.504;2022-07-06T01:29:14;6.68;;;5.10;;
70080;SDS011;57452;50.496;30.504;2022-07-06T01:31:48;5.15;;;4.65;;
70080;SDS011;57452;50.496;30.504;2022-07-06T01:34:16;6.68;;;4.85;;
70080;SDS011;57452;50.496;30.504;2022-07-06T01:36:44;7.38;;;4.68;;
70080;SDS011;57452;50.496;30.504;2022-07-06T01:39:11;9.52;;;5.93;;
70080;SDS011;57452;50.496;30.504;2022-07-06T01:41:39;7.70;;;4.80;;
70080;SDS011;57452;50.496;30.504;2022-07-06T01:44:06;6.25;;;4.90;;
70080;SDS011;57452;50.496;30.504;2022-07-06T01:46:34;6.80;;;4.82;;
70080;SDS011;57452;50.496;30.504;2022-07-06T01:49:01;7.88;;;5.50;;
70080;SDS011;57452;50.496;30.504;2022-07-06T01:51:29;6.07;;;4.95;;
70080;SDS011;57452;50.496;30.504;2022-07-06T01:53:56;5.93;;;4.82;;
70080;SDS011;57452;50.496;30.504;2022-07-06T01:56:24;6.13;;;5.22;;
70080;SDS011;57452;50.496;30.504;2022-07-06T01:58:51;9.05;;;5.13;;
70080;SDS011;57452;50.496;30.504;2022-07-06T02:01:19;9.77;;;5.30;;
70080;SDS011;57452;50.496;30.504;2022-07-06T02:03:47;6.22;;;5.25;;
70080;SDS011;57452;50.496;30.504;2022-07-06T02:06:15;7.20;;;5.45;;
70080;SDS011;57452;50.496;30.504;2022-07-06T02:08:42;7.78;;;4.60;;
70080;SDS011;57452;50.496;30.504;2022-07-06T02:11:10;7.28;;;5.13;;
70080;SDS011;57452;50.496;30.504;2022-07-06T02:13:37;7.28;;;5.68;;
70080;SDS011;57452;50.496;30.504;2022-07-06T02:16:05;7.47;;;5.75;;
70080;SDS011;57452;50.496;30.504;2022-07-06T02:18:33;5.57;;;5.00;;
70080;SDS011;57452;50.496;30.504;2022-07-06T02:21:00;7.35;;;5.88;;
70080;SDS011;57452;50.496;30.504;2022-07-06T02:23:28;6.32;;;5.40;;
70080;SDS011;57452;50.496;30.504;2022-07-06T02:25:55;7.63;;;5.40;;
70080;SDS011;57452;50.496;30.504;2022-07-06T02:28:22;8.52;;;5.50;;
70080;SDS011;57452;50.496;30.504;2022-07-06T02:30:51;6.63;;;5.53;;
70080;SDS011;57452;50.496;30.504;2022-07-06T02:33:19;7.38;;;5.50;;
70080;SDS011;57452;50.496;30.504;2022-07-06T02:35:46;6.28;;;5.20;;
70080;SDS011;57452;50.496;30.504;2022-07-06T02:38:13;8.02;;;5.40;;
70080;SDS011;57452;50.496;30.504;2022-07-06T02:40:41;7.25;;;5.65;;
70080;SDS011;57452;50.496;30.504;2022-07-06T02:43:08;6.95;;;5.60;;
70080;SDS011;57452;50.496;30.504;2022-07-06T02:45:36;6.45;;;5.60;;
70080;SDS011;57452;50.496;30.504;2022-07-06T02:48:03;5.60;;;4.97;;
70080;SDS011;57452;50.496;30.504;2022-07-06T02:50:31;7.55;;;5.25;;
70080;SDS011;57452;50.496;30.504;2022-07-06T02:52:58;6.80;;;5.03;;
70080;SDS011;57452;50.496;30.504;2022-07-06T02:55:27;8.52;;;5.07;;
70080;SDS011;57452;50.496;30.504;2022-07-06T02:57:55;6.45;;;4.75;;
70080;SDS011;57452;50.496;30.504;2022-07-06T03:00:22;6.88;;;5.05;;
70080;SDS011;57452;50.496;30.504;2022-07-06T03:02:50;6.40;;;5.47;;
70080;SDS011;57452;50.496;30.504;2022-07-06T03:05:17;6.00;;;5.03;;
70080;SDS011;57452;50.496;30.504;2022-07-06T03:07:44;7.88;;;5.30;;
70080;SDS011;57452;50.496;30.504;2022-07-06T03:10:12;9.55;;;5.38;;
70080;SDS011;57452;50.496;30.504;2022-07-06T03:12:39;8.38;;;5.10;;
70080;SDS011;57452;50.496;30.504;2022-07-06T03:15:07;8.93;;;5.78;;
70080;SDS011;57452;50.496;30.504;2022-07-06T03:17:38;7.85;;;5.20;;
70080;SDS011;57452;50.496;30.504;2022-07-06T03:20:06;6.97;;;5.45;;
70080;SDS011;57452;50.496;30.504;2022-07-06T03:22:34;6.47;;;4.95;;
70080;SDS011;57452;50.496;30.504;2022-07-06T03:25:01;6.22;;;5.50;;
70080;SDS011;57452;50.496;30.504;2022-07-06T03:27:29;7.07;;;4.72;;
70080;SDS011;57452;50.496;30.504;2022-07-06T03:29:56;6.63;;;5.63;;
70080;SDS011;57452;50.496;30.504;2022-07-06T03:32:23;8.15;;;5.15;;
70080;SDS011;57452;50.496;30.504;2022-07-06T03:34:51;18.13;;;6.85;;
70080;SDS011;57452;50.496;30.504;2022-07-06T03:37:18;17.35;;;6.13;;
70080;SDS011;57452;50.496;30.504;2022-07-06T03:39:46;12.68;;;5.63;;
70080;SDS011;57452;50.496;30.504;2022-07-06T03:42:13;10.82;;;4.95;;
70080;SDS011;57452;50.496;30.504;2022-07-06T03:44:41;7.18;;;6.32;;
70080;SDS011;57452;50.496;30.504;2022-07-06T03:47:08;6.55;;;4.80;;
70080;SDS011;57452;50.496;30.504;2022-07-06T03:49:35;6.32;;;5.05;;
70080;SDS011;57452;50.496;30.504;2022-07-06T03:52:03;5.82;;;5.10;;
70080;SDS011;57452;50.496;30.504;2022-07-06T03:54:30;7.78;;;4.65;;
70080;SDS011;57452;50.496;30.504;2022-07-06T03:56:58;6.40;;;5.13;;
70080;SDS011;57452;50.496;30.504;2022-07-06T03:59:25;6.18;;;4.72;;
70080;SDS011;57452;50.496;30.504;2022-07-06T04:01:52;5.70;;;4.53;;
70080;SDS011;57452;50.496;30.504;2022-07-06T04:04:20;6.45;;;4.70;;
70080;SDS011;57452;50.496;30.504;2022-07-06T04:06:47;5.90;;;4.75;;
70080;SDS011;57452;50.496;30.504;2022-07-06T04:09:17;7.85;;;4.85;;
70080;SDS011;57452;50.496;30.504;2022-07-06T04:11:44;7.05;;;4.53;;
70080;SDS011;57452;50.496;30.504;2022-07-06T04:14:12;5.50;;;4.90;;
70080;SDS011;57452;50.496;30.504;2022-07-06T04:16:39;7.25;;;4.95;;
70080;SDS011;57452;50.496;30.504;2022-07-06T04:19:07;5.70;;;5.10;;
70080;SDS011;57452;50.496;30.504;2022-07-06T04:21:34;10.73;;;4.63;;
70080;SDS011;57452;50.496;30.504;2022-07-06T04:24:01;5.90;;;4.93;;
70080;SDS011;57452;50.496;30.504;2022-07-06T04:26:29;7.00;;;4.85;;
70080;SDS011;57452;50.496;30.504;2022-07-06T04:28:56;5.80;;;4.75;;
70080;SDS011;57452;50.496;30.504;2022-07-06T04:31:25;6.85;;;5.10;;
70080;SDS011;57452;50.496;30.504;2022-07-06T04:33:52;7.10;;;4.43;;
70080;SDS011;57452;50.496;30.504;2022-07-06T04:36:20;7.05;;;4.65;;
70080;SDS011;57452;50.496;30.504;2022-07-06T04:38:47;7.18;;;4.63;;
70080;SDS011;57452;50.496;30.504;2022-07-06T04:41:14;6.53;;;4.82;;
70080;SDS011;57452;50.496;30.504;2022-07-06T04:43:42;6.43;;;4.32;;
70080;SDS011;57452;50.496;30.504;2022-07-06T04:46:10;6.78;;;4.35;;
70080;SDS011;57452;50.496;30.504;2022-07-06T04:48:38;5.10;;;4.20;;
70080;SDS011;57452;50.496;30.504;2022-07-06T04:51:05;7.05;;;4.75;;
70080;SDS011;57452;50.496;30.504;2022-07-06T04:53:33;5.88;;;4.40;;
70080;SDS011;57452;50.496;30.504;2022-07-06T04:56:00;5.55;;;4.30;;
70080;SDS011;57452;50.496;30.504;2022-07-06T04:58:28;6.90;;;4.55;;
70080;SDS011;57452;50.496;30.504;2022-07-06T05:00:55;6.50;;;4.57;;
70080;SDS011;57452;50.496;30.504;2022-07-06T05:03:23;5.95;;;4.30;;
70080;SDS011;57452;50.496;30.504;2022-07-06T05:05:50;8.55;;;5.68;;
70080;SDS011;57452;50.496;30.504;2022-07-06T05:08:19;6.75;;;5.10;;
70080;SDS011;57452;50.496;30.504;2022-07-06T05:10:48;6.80;;;5.45;;
70080;SDS011;57452;50.496;30.504;2022-07-06T05:13:15;5.95;;;4.70;;
70080;SDS011;57452;50.496;30.504;2022-07-06T05:15:43;7.25;;;4.80;;
70080;SDS011;57452;50.496;30.504;2022-07-06T05:18:10;8.82;;;4.55;;
70080;SDS011;57452;50.496;30.504;2022-07-06T05:20:38;5.53;;;4.28;;
70080;SDS011;57452;50.496;30.504;2022-07-06T05:23:06;6.82;;;4.85;;
70080;SDS011;57452;50.496;30.504;2022-07-06T05:25:33;4.93;;;3.90;;
70080;SDS011;57452;50.496;30.504;2022-07-06T05:28:02;6.38;;;3.92;;
70080;SDS011;57452;50.496;30.504;2022-07-06T05:30:29;6.57;;;4.28;;
70080;SDS011;57452;50.496;30.504;2022-07-06T05:32:57;7.18;;;5.10;;
70080;SDS011;57452;50.496;30.504;2022-07-06T05:35:24;9.75;;;5.65;;
70080;SDS011;57452;50.496;30.504;2022-07-06T05:38:12;6.45;;;4.70;;
70080;SDS011;57452;50.496;30.504;2022-07-06T05:40:39;9.25;;;4.95;;
70080;SDS011;57452;50.496;30.504;2022-07-06T05:43:06;7.07;;;4.85;;
70080;SDS011;57452;50.496;30.504;2022-07-06T05:45:34;4.80;;;3.90;;
70080;SDS011;57452;50.496;30.504;2022-07-06T05:48:02;7.03;;;4.60;;
70080;SDS011;57452;50.496;30.504;2022-07-06T05:50:48;7.10;;;4.00;;
70080;SDS011;57452;50.496;30.504;2022-07-06T05:53:15;5.00;;;3.78;;
70080;SDS011;57452;50.496;30.504;2022-07-06T05:55:46;7.43;;;4.20;;
70080;SDS011;57452;50.496;30.504;2022-07-06T05:58:14;5.22;;;4.25;;
70080;SDS011;57452;50.496;30.504;2022-07-06T06:00:41;5.97;;;4.18;;
70080;SDS011;57452;50.496;30.504;2022-07-06T06:03:09;4.85;;;3.97;;
70080;SDS011;57452;50.496;30.504;2022-07-06T06:05:36;5.90;;;4.03;;
70080;SDS011;57452;50.496;30.504;2022-07-06T06:08:04;4.82;;;3.85;;
70080;SDS011;57452;50.496;30.504;2022-07-06T06:10:31;7.15;;;3.88;;
70080;SDS011;57452;50.496;30.504;2022-07-06T06:12:59;5.88;;;4.65;;
70080;SDS011;57452;50.496;30.504;2022-07-06T06:15:26;5.10;;;3.85;;
70080;SDS011;57452;50.496;30.504;2022-07-06T06:17:55;6.50;;;4.18;;
70080;SDS011;57452;50.496;30.504;2022-07-06T06:20:23;6.93;;;4.00;;
70080;SDS011;57452;50.496;30.504;2022-07-06T06:22:54;4.93;;;3.78;;
70080;SDS011;57452;50.496;30.504;2022-07-06T06:25:35;6.77;;;3.70;;
70080;SDS011;57452;50.496;30.504;2022-07-06T06:28:07;6.82;;;4.30;;
70080;SDS011;57452;50.496;30.504;2022-07-06T06:30:35;6.82;;;4.65;;
70080;SDS011;57452;50.496;30.504;2022-07-06T06:33:12;4.93;;;3.80;;
70080;SDS011;57452;50.496;30.504;2022-07-06T06:35:43;8.45;;;3.90;;
70080;SDS011;57452;50.496;30.504;2022-07-06T06:38:11;8.07;;;3.90;;
70080;SDS011;57452;50.496;30.504;2022-07-06T06:40:39;4.95;;;3.63;;
70080;SDS011;57452;50.496;30.504;2022-07-06T06:43:06;5.75;;;4.05;;
70080;SDS011;57452;50.496;30.504;2022-07-06T06:45:34;4.63;;;3.30;;
70080;SDS011;57452;50.496;30.504;2022-07-06T06:48:01;4.60;;;3.17;;
70080;SDS011;57452;50.496;30.504;2022-07-06T06:50:28;6.60;;;3.88;;
70080;SDS011;57452;50.496;30.504;2022-07-06T06:52:56;6.43;;;4.57;;
70080;SDS011;57452;50.496;30.504;2022-07-06T06:55:23;4.65;;;3.72;;
70080;SDS011;57452;50.496;30.504;2022-07-06T06:57:51;4.95;;;4.22;;
70080;SDS011;57452;50.496;30.504;2022-07-06T07:00:18;8.68;;;4.25;;
70080;SDS011;57452;50.496;30.504;2022-07-06T07:02:46;5.32;;;3.95;;
70080;SDS011;57452;50.496;30.504;2022-07-06T07:05:13;5.47;;;4.10;;
70080;SDS011;57452;50.496;30.504;2022-07-06T07:07:41;6.95;;;3.85;;
70080;SDS011;57452;50.496;30.504;2022-07-06T07:10:09;6.47;;;4.22;;
70080;SDS011;57452;50.496;30.504;2022-07-06T07:12:46;5.97;;;4.50;;
70080;SDS011;57452;50.496;30.504;2022-07-06T07:15:13;7.38;;;4.28;;
70080;SDS011;57452;50.496;30.504;2022-07-06T07:17:41;12.00;;;4.82;;
70080;SDS011;57452;50.496;30.504;2022-07-06T07:20:09;6.78;;;4.25;;
70080;SDS011;57452;50.496;30.504;2022-07-06T07:22:36;5.28;;;3.97;;
70080;SDS011;57452;50.496;30.504;2022-07-06T07:25:04;6.20;;;4.03;;
70080;SDS011;57452;50.496;30.504;2022-07-06T07:27:31;5.43;;;4.32;;
70080;SDS011;57452;50.496;30.504;2022-07-06T07:29:59;4.75;;;3.95;;
70080;SDS011;57452;50.496;30.504;2022-07-06T07:32:26;5.57;;;4.00;;
70080;SDS011;57452;50.496;30.504;2022-07-06T07:34:54;5.38;;;3.90;;
70080;SDS011;57452;50.496;30.504;2022-07-06T07:37:21;5.63;;;4.53;;
70080;SDS011;57452;50.496;30.504;2022-07-06T07:39:48;6.97;;;4.80;;
70080;SDS011;57452;50.496;30.504;2022-07-06T07:42:16;5.93;;;4.25;;
70080;SDS011;57452;50.496;30.504;2022-07-06T07:44:44;8.65;;;4.63;;
70080;SDS011;57452;50.496;30.504;2022-07-06T07:47:11;7.30;;;4.57;;
70080;SDS011;57452;50.496;30.504;2022-07-06T07:49:39;5.78;;;5.20;;
70080;SDS011;57452;50.496;30.504;2022-07-06T07:52:06;5.70;;;4.40;;
70080;SDS011;57452;50.496;30.504;2022-07-06T07:54:34;5.03;;;4.15;;
70080;SDS011;57452;50.496;30.504;2022-07-06T07:57:01;9.60;;;5.03;;
70080;SDS011;57452;50.496;30.504;2022-07-06T07:59:28;9.45;;;4.60;;
70080;SDS011;57452;50.496;30.504;2022-07-06T08:01:56;5.70;;;4.10;;
70080;SDS011;57452;50.496;30.504;2022-07-06T08:04:23;5.20;;;4.07;;
70080;SDS011;57452;50.496;30.504;2022-07-06T08:06:51;5.43;;;4.18;;
70080;SDS011;57452;50.496;30.504;2022-07-06T08:09:26;7.00;;;4.30;;
70080;SDS011;57452;50.496;30.504;2022-07-06T08:11:53;5.78;;;4.25;;
70080;SDS011;57452;50.496;30.504;2022-07-06T08:14:21;6.00;;;3.90;;
70080;SDS011;57452;50.496;30.504;2022-07-06T08:16:48;6.13;;;3.72;;
70080;SDS011;57452;50.496;30.504;2022-07-06T08:19:16;7.25;;;4.22;;
70080;SDS011;57452;50.496;30.504;2022-07-06T08:21:43;4.85;;;3.90;;
70080;SDS011;57452;50.496;30.504;2022-07-06T08:24:11;6.97;;;4.32;;
70080;SDS011;57452;50.496;30.504;2022-07-06T08:26:38;7.00;;;4.38;;
70080;SDS011;57452;50.496;30.504;2022-07-06T08:29:06;5.70;;;4.43;;
70080;SDS011;57452;50.496;30.504;2022-07-06T08:31:34;7.38;;;4.30;;
70080;SDS011;57452;50.496;30.504;2022-07-06T08:34:22;6.15;;;4.22;;
70080;SDS011;57452;50.496;30.504;2022-07-06T08:36:49;7.82;;;3.92;;
70080;SDS011;57452;50.496;30.504;2022-07-06T08:39:18;6.53;;;3.85;;
70080;SDS011;57452;50.496;30.504;2022-07-06T08:42:34;4.38;;;3.95;;
70080;SDS011;57452;50.496;30.504;2022-07-06T08:45:03;5.60;;;3.75;;
70080;SDS011;57452;50.496;30.504;2022-07-06T08:47:30;4.78;;;3.83;;
70080;SDS011;57452;50.496;30.504;2022-07-06T08:49:58;7.25;;;3.97;;
70080;SDS011;57452;50.496;30.504;2022-07-06T08:52:25;7.07;;;4.82;;
70080;SDS011;57452;50.496;30.504;2022-07-06T08:54:53;9.00;;;3.85;;
70080;SDS011;57452;50.496;30.504;2022-07-06T08:57:21;9.05;;;4.30;;
70080;SDS011;57452;50.496;30.504;2022-07-06T08:59:49;7.93;;;3.83;;
70080;SDS011;57452;50.496;30.504;2022-07-06T09:02:16;9.55;;;3.70;;
70080;SDS011;57452;50.496;30.504;2022-07-06T09:04:46;5.38;;;3.67;;
70080;SDS011;57452;50.496;30.504;2022-07-06T09:07:18;5.30;;;3.55;;
70080;SDS011;57452;50.496;30.504;2022-07-06T09:10:08;5.20;;;3.70;;
70080;SDS011;57452;50.496;30.504;2022-07-06T09:12:36;5.40;;;3.20;;
70080;SDS011;57452;50.496;30.504;2022-07-06T09:15:04;6.53;;;4.15;;
70080;SDS011;57452;50.496;30.504;2022-07-06T09:17:31;5.28;;;3.15;;
70080;SDS011;57452;50.496;30.504;2022-07-06T09:19:59;7.28;;;3.28;;
70080;SDS011;57452;50.496;30.504;2022-07-06T09:22:31;5.55;;;3.65;;
70080;SDS011;57452;50.496;30.504;2022-07-06T09:25:04;6.57;;;4.47;;
70080;SDS011;57452;50.496;30.504;2022-07-06T09:27:42;5.43;;;4.20;;
70080;SDS011;57452;50.496;30.504;2022-07-06T09:30:10;7.60;;;3.67;;
70080;SDS011;57452;50.496;30.504;2022-07-06T09:32:39;5.90;;;3.97;;
70080;SDS011;57452;50.496;30.504;2022-07-06T09:35:07;5.78;;;3.35;;
70080;SDS011;57452;50.496;30.504;2022-07-06T09:37:35;6.05;;;3.90;;
70080;SDS011;57452;50.496;30.504;2022-07-06T09:40:03;6.65;;;3.83;;
70080;SDS011;57452;50.496;30.504;2022-07-06T09:42:44;4.65;;;3.75;;
70080;SDS011;57452;50.496;30.504;2022-07-06T09:45:11;5.50;;;3.70;;
70080;SDS011;57452;50.496;30.504;2022-07-06T09:47:38;5.03;;;3.50;;
70080;SDS011;57452;50.496;30.504;2022-07-06T09:50:08;5.93;;;4.20;;
70080;SDS011;57452;50.496;30.504;2022-07-06T09:52:36;9.60;;;3.70;;
70080;SDS011;57452;50.496;30.504;2022-07-06T09:55:13;6.28;;;4.28;;
70080;SDS011;57452;50.496;30.504;2022-07-06T09:57:51;3.97;;;3.45;;
70080;SDS011;57452;50.496;30.504;2022-07-06T10:00:19;5.18;;;3.65;;
70080;SDS011;57452;50.496;30.504;2022-07-06T10:02:47;8.18;;;3.85;;
70080;SDS011;57452;50.496;30.504;2022-07-06T10:05:21;5.03;;;3.45;;
70080;SDS011;57452;50.496;30.504;2022-07-06T10:07:59;8.02;;;3.85;;
70080;SDS011;57452;50.496;30.504;2022-07-06T10:10:27;5.13;;;3.75;;
70080;SDS011;57452;50.496;30.504;2022-07-06T10:12:56;9.43;;;3.67;;
70080;SDS011;57452;50.496;30.504;2022-07-06T10:15:27;5.25;;;3.47;;
70080;SDS011;57452;50.496;30.504;2022-07-06T10:18:02;7.90;;;3.60;;
70080;SDS011;57452;50.496;30.504;2022-07-06T10:20:31;4.07;;;3.35;;
70080;SDS011;57452;50.496;30.504;2022-07-06T10:23:00;5.85;;;4.10;;
70080;SDS011;57452;50.496;30.504;2022-07-06T10:25:27;7.30;;;3.50;;
70080;SDS011;57452;50.496;30.504;2022-07-06T10:27:55;6.20;;;3.85;;
70080;SDS011;57452;50.496;30.504;2022-07-06T10:30:23;6.32;;;4.20;;
70080;SDS011;57452;50.496;30.504;2022-07-06T10:32:51;9.88;;;4.25;;
70080;SDS011;57452;50.496;30.504;2022-07-06T10:35:19;5.93;;;3.80;;
70080;SDS011;57452;50.496;30.504;2022-07-06T10:38:02;6.45;;;3.90;;
70080;SDS011;57452;50.496;30.504;2022-07-06T10:40:36;7.43;;;4.45;;
70080;SDS011;57452;50.496;30.504;2022-07-06T10:43:42;5.35;;;4.13;;
70080;SDS011;57452;50.496;30.504;2022-07-06T10:46:11;6.22;;;3.63;;
70080;SDS011;57452;50.496;30.504;2022-07-06T10:48:48;7.00;;;4.25;;
70080;SDS011;57452;50.496;30.504;2022-07-06T10:51:26;6.45;;;3.85;;
70080;SDS011;57452;50.496;30.504;2022-07-06T10:53:58;4.97;;;3.55;;
70080;SDS011;57452;50.496;30.504;2022-07-06T10:56:37;7.00;;;3.92;;
70080;SDS011;57452;50.496;30.504;2022-07-06T10:59:14;6.15;;;3.80;;
70080;SDS011;57452;50.496;30.504;2022-07-06T11:04:31;6.45;;;4.32;;
70080;SDS011;57452;50.496;30.504;2022-07-06T11:07:06;5.05;;;4.28;;
70080;SDS011;57452;50.496;30.504;2022-07-06T11:09:34;6.95;;;3.47;;
70080;SDS011;57452;50.496;30.504;2022-07-06T11:12:14;4.82;;;4.32;;
70080;SDS011;57452;50.496;30.504;2022-07-06T11:14:43;4.57;;;3.70;;
70080;SDS011;57452;50.496;30.504;2022-07-06T11:17:11;5.78;;;4.00;;
70080;SDS011;57452;50.496;30.504;2022-07-06T11:19:47;4.40;;;4.00;;
70080;SDS011;57452;50.496;30.504;2022-07-06T11:22:15;5.38;;;3.97;;
70080;SDS011;57452;50.496;30.504;2022-07-06T11:24:43;8.13;;;3.85;;
70080;SDS011;57452;50.496;30.504;2022-07-06T11:27:10;7.53;;;4.10;;
70080;SDS011;57452;50.496;30.504;2022-07-06T11:29:39;7.53;;;4.38;;
70080;SDS011;57452;50.496;30.504;2022-07-06T11:32:07;4.07;;;3.40;;
70080;SDS011;57452;50.496;30.504;2022-07-06T11:34:41;5.18;;;3.83;;
70080;SDS011;57452;50.496;30.504;2022-07-06T11:37:10;5.20;;;3.67;;
70080;SDS011;57452;50.496;30.504;2022-07-06T11:39:38;5.05;;;3.85;;
70080;SDS011;57452;50.496;30.504;2022-07-06T11:42:09;6.90;;;4.00;;
70080;SDS011;57452;50.496;30.504;2022-07-06T11:44:37;6.68;;;3.70;;
70080;SDS011;57452;50.496;30.504;2022-07-06T11:47:05;5.47;;;4.43;;
70080;SDS011;57452;50.496;30.504;2022-07-06T11:49:34;5.65;;;4.05;;
70080;SDS011;57452;50.496;30.504;2022-07-06T11:52:08;6.95;;;4.15;;
70080;SDS011;57452;50.496;30.504;2022-07-06T11:54:37;4.22;;;3.78;;
70080;SDS011;57452;50.496;30.504;2022-07-06T11:57:06;4.63;;;4.20;;
70080;SDS011;57452;50.496;30.504;2022-07-06T11:59:36;8.40;;;4.28;;
70080;SDS011;57452;50.496;30.504;2022-07-06T12:02:04;5.55;;;4.10;;
70080;SDS011;57452;50.496;30.504;2022-07-06T12:04:33;10.40;;;4.20;;
70080;SDS011;57452;50.496;30.504;2022-07-06T12:07:05;8.70;;;3.97;;
70080;SDS011;57452;50.496;30.504;2022-07-06T12:09:34;6.03;;;4.43;;
70080;SDS011;57452;50.496;30.504;2022-07-06T12:12:02;5.85;;;4.35;;
70080;SDS011;57452;50.496;30.504;2022-07-06T12:14:30;6.03;;;4.28;;
70080;SDS011;57452;50.496;30.504;2022-07-06T12:17:05;6.57;;;4.45;;
70080;SDS011;57452;50.496;30.504;2022-07-06T12:19:33;6.90;;;4.40;;
70080;SDS011;57452;50.496;30.504;2022-07-06T12:22:02;5.78;;;4.80;;
70080;SDS011;57452;50.496;30.504;2022-07-06T12:24:30;7.25;;;4.75;;
70080;SDS011;57452;50.496;30.504;2022-07-06T12:27:20;10.13;;;4.35;;
70080;SDS011;57452;50.496;30.504;2022-07-06T12:29:47;5.07;;;4.38;;
70080;SDS011;57452;50.496;30.504;2022-07-06T12:32:16;5.45;;;4.03;;
70080;SDS011;57452;50.496;30.504;2022-07-06T12:35:01;5.30;;;3.88;;
70080;SDS011;57452;50.496;30.504;2022-07-06T12:37:59;7.88;;;3.95;;
70080;SDS011;57452;50.496;30.504;2022-07-06T12:40:31;6.93;;;4.25;;
70080;SDS011;57452;50.496;30.504;2022-07-06T12:43:04;5.00;;;4.20;;
70080;SDS011;57452;50.496;30.504;2022-07-06T12:46:25;7.43;;;4.57;;
70080;SDS011;57452;50.496;30.504;2022-07-06T12:49:10;6.68;;;3.97;;
70080;SDS011;57452;50.496;30.504;2022-07-06T12:51:55;6.20;;;4.50;;
70080;SDS011;57452;50.496;30.504;2022-07-06T12:57:15;15.27;;;4.90;;
70080;SDS011;57452;50.496;30.504;2022-07-06T13:05:15;12.75;;;4.80;;
70080;SDS011;57452;50.496;30.504;2022-07-06T13:07:46;8.77;;;4.63;;
70080;SDS011;57452;50.496;30.504;2022-07-06T13:10:17;6.10;;;4.57;;
70080;SDS011;57452;50.496;30.504;2022-07-06T13:15:20;7.18;;;5.60;;
70080;SDS011;57452;50.496;30.504;2022-07-06T13:17:47;7.32;;;4.65;;
70080;SDS011;57452;50.496;30.504;2022-07-06T13:20:15;7.95;;;5.40;;
70080;SDS011;57452;50.496;30.504;2022-07-06T13:22:43;8.07;;;5.38;;
70080;SDS011;57452;50.496;30.504;2022-07-06T13:25:11;9.80;;;5.15;;
70080;SDS011;57452;50.496;30.504;2022-07-06T13:27:39;7.53;;;4.80;;
70080;SDS011;57452;50.496;30.504;2022-07-06T13:30:07;10.68;;;5.25;;
70080;SDS011;57452;50.496;30.504;2022-07-06T13:32:34;11.70;;;5.20;;
70080;SDS011;57452;50.496;30.504;2022-07-06T13:35:01;12.25;;;6.47;;
70080;SDS011;57452;50.496;30.504;2022-07-06T13:37:29;12.30;;;6.78;;
70080;SDS011;57452;50.496;30.504;2022-07-06T13:39:56;11.27;;;6.10;;
70080;SDS011;57452;50.496;30.504;2022-07-06T13:42:24;8.32;;;6.03;;
70080;SDS011;57452;50.496;30.504;2022-07-06T13:44:52;10.48;;;6.63;;
70080;SDS011;57452;50.496;30.504;2022-07-06T13:47:19;15.45;;;6.47;;
70080;SDS011;57452;50.496;30.504;2022-07-06T13:49:50;9.95;;;7.03;;
70080;SDS011;57452;50.496;30.504;2022-07-06T13:52:22;10.52;;;6.65;;
70080;SDS011;57452;50.496;30.504;2022-07-06T13:54:50;9.52;;;6.80;;
70080;SDS011;57452;50.496;30.504;2022-07-06T13:57:27;12.00;;;7.22;;
70080;SDS011;57452;50.496;30.504;2022-07-06T13:59:57;15.05;;;6.95;;
70080;SDS011;57452;50.496;30.504;2022-07-06T14:02:24;11.65;;;6.78;;
70080;SDS011;57452;50.496;30.504;2022-07-06T14:04:52;9.43;;;6.55;;
70080;SDS011;57452;50.496;30.504;2022-07-06T14:07:25;7.13;;;5.03;;
70080;SDS011;57452;50.496;30.504;2022-07-06T14:09:52;8.35;;;5.85;;
70080;SDS011;57452;50.496;30.504;2022-07-06T14:12:19;7.93;;;5.13;;
70080;SDS011;57452;50.496;30.504;2022-07-06T14:14:48;9.38;;;5.47;;
70080;SDS011;57452;50.496;30.504;2022-07-06T14:17:16;8.93;;;5.40;;
70080;SDS011;57452;50.496;30.504;2022-07-06T14:19:52;8.55;;;5.72;;
70080;SDS011;57452;50.496;30.504;2022-07-06T14:22:21;10.27;;;5.88;;
70080;SDS011;57452;50.496;30.504;2022-07-06T14:24:50;9.00;;;6.57;;
70080;SDS011;57452;50.496;30.504;2022-07-06T14:27:21;12.07;;;7.32;;
70080;SDS011;57452;50.496;30.504;2022-07-06T14:29:48;11.57;;;7.30;;
70080;SDS011;57452;50.496;30.504;2022-07-06T14:32:20;9.27;;;7.30;;
70080;SDS011;57452;50.496;30.504;2022-07-06T14:34:56;13.73;;;6.50;;
70080;SDS011;57452;50.496;30.504;2022-07-06T14:37:23;11.90;;;6.43;;
70080;SDS011;57452;50.496;30.504;2022-07-06T14:39:52;10.63;;;7.40;;
70080;SDS011;57452;50.496;30.504;2022-07-06T14:42:33;10.38;;;5.95;;
70080;SDS011;57452;50.496;30.504;2022-07-06T14:45:03;8.88;;;6.32;;
70080;SDS011;57452;50.496;30.504;2022-07-06T14:47:32;9.63;;;6.22;;
70080;SDS011;57452;50.496;30.504;2022-07-06T14:50:03;10.50;;;6.65;;
70080;SDS011;57452;50.496;30.504;2022-07-06T14:52:30;8.63;;;6.40;;
70080;SDS011;57452;50.496;30.504;2022-07-06T14:55:08;8.27;;;5.93;;
70080;SDS011;57452;50.496;30.504;2022-07-06T14:57:40;8.75;;;6.63;;
70080;SDS011;57452;50.496;30.504;2022-07-06T15:00:12;7.90;;;6.45;;